Terminal Aerodrome Forecast
Issued by NWS

Home | Current Version | Previous Version | Text Only | Print | Product List | Glossary On
Versions: 1 2 3 4 5 6 7 8 9 10 11 12
926
FTUS44 KEPZ 252321
TAFLRU
TAF
KLRU 252321Z 2600/2624 10006KT P6SM SCT070 SCT200
     FM260100 17006KT P6SM VCTS SCT070CB SCT250
     FM261800 15005KT P6SM SCT250=

USA.gov is the U.S. government's official web portal to all federal, state and local government web resources and services.